Time;durP1;ratioP1;P1;durP2;ratioP2;P2;SDS_P1;SDS_P2;PMS_P1;PMS_P2;Temp;Humidity;BMP_temperature;BMP_pressure;BME280_temperature;BME280_humidity;BME280_pressure;Samples;Min_cycle;Max_cycle;Signal;HPM_P1;HPM_P2
2022/05/05 00:02:55;;;;;;;16.75;11.45;;;;;;;;;;6292726;28;20820;-81
2022/05/05 00:05:57;;;;;;;15.82;11.82;;;;;;;;;;6282743;28;20060;-81
2022/05/05 00:09:00;;;;;;;20.70;14.00;;;;;;;;;;6300312;28;20115;-82
2022/05/05 00:15:22;;;;;;;21.88;13.50;;;;;;;;;;6312383;28;20051;-82
2022/05/05 00:18:23;;;;;;;18.13;13.15;;;;;;;;;;6307183;28;20131;-81
2022/05/05 00:21:25;;;;;;;19.15;14.20;;;;;;;;;;6307587;28;20051;-80
2022/05/05 00:24:27;;;;;;;18.73;14.10;;;;;;;;;;6309249;28;20048;-81
2022/05/05 00:27:29;;;;;;;19.55;13.95;;;;;;;;;;6307307;28;20055;-81
2022/05/05 00:30:30;;;;;;;18.25;13.68;;;;;;;;;;6305441;28;20047;-82
2022/05/05 00:33:32;;;;;;;19.35;13.98;;;;;;;;;;6304097;28;20093;-81
2022/05/05 00:36:34;;;;;;;20.13;14.45;;;;;;;;;;6307633;28;20118;-80
2022/05/05 00:39:36;;;;;;;18.77;13.40;;;;;;;;;;6290176;28;20068;-79
2022/05/05 00:42:38;;;;;;;20.17;14.15;;;;;;;;;;6284956;28;20116;-81
2022/05/05 00:45:39;;;;;;;20.15;15.07;;;;;;;;;;6284151;28;20055;-81
2022/05/05 00:48:42;;;;;;;23.38;15.25;;;;;;;;;;6282588;28;20113;-80
2022/05/05 00:51:45;;;;;;;24.40;15.65;;;;;;;;;;6282867;28;20318;-81
2022/05/05 00:54:47;;;;;;;21.20;14.97;;;;;;;;;;6295556;28;20125;-82
2022/05/05 00:57:48;;;;;;;20.65;14.55;;;;;;;;;;6318283;28;20059;-82
2022/05/05 01:00:50;;;;;;;20.92;14.73;;;;;;;;;;6317348;28;20115;-81
2022/05/05 01:03:52;;;;;;;23.05;15.10;;;;;;;;;;6317454;28;20043;-80
2022/05/05 01:06:54;;;;;;;22.38;14.82;;;;;;;;;;6317641;28;20124;-81
2022/05/05 01:09:56;;;;;;;24.60;15.73;;;;;;;;;;6314508;28;20048;-82
2022/05/05 01:13:01;;;;;;;21.67;15.02;;;;;;;;;;6315146;28;20120;-81
2022/05/05 01:16:04;;;;;;;22.65;14.10;;;;;;;;;;6315295;28;20062;-81
2022/05/05 01:19:06;;;;;;;21.45;14.25;;;;;;;;;;6292265;28;20060;-81
2022/05/05 01:22:07;;;;;;;19.13;13.82;;;;;;;;;;6290807;28;20071;-81
2022/05/05 01:28:31;;;;;;;19.33;12.73;;;;;;;;;;6316073;28;20048;-81
2022/05/05 01:31:33;;;;;;;22.45;12.05;;;;;;;;;;6313496;28;20082;-80
2022/05/05 01:34:35;;;;;;;16.63;12.35;;;;;;;;;;6295665;28;20308;-80
2022/05/05 01:37:36;;;;;;;17.50;12.82;;;;;;;;;;6293714;28;20052;-81
2022/05/05 01:40:39;;;;;;;20.02;13.38;;;;;;;;;;6293192;28;20048;-80
2022/05/05 01:43:43;;;;;;;22.15;13.13;;;;;;;;;;6296276;28;20040;-81
2022/05/05 01:46:45;;;;;;;19.58;12.88;;;;;;;;;;6298698;28;20047;-81
2022/05/05 01:49:47;;;;;;;20.23;12.68;;;;;;;;;;6335564;28;20786;-81
2022/05/05 01:52:48;;;;;;;21.55;12.85;;;;;;;;;;6328032;28;20059;-82
2022/05/05 01:55:50;;;;;;;17.80;12.32;;;;;;;;;;6303591;28;20056;-80
2022/05/05 01:58:52;;;;;;;16.58;12.23;;;;;;;;;;6320171;28;20113;-80
2022/05/05 02:01:54;;;;;;;19.83;12.40;;;;;;;;;;6304296;28;20058;-82
2022/05/05 02:04:55;;;;;;;16.02;11.20;;;;;;;;;;6344037;28;20035;-80
2022/05/05 02:07:57;;;;;;;18.58;11.85;;;;;;;;;;6343270;28;20073;-81
2022/05/05 02:10:59;;;;;;;20.20;12.18;;;;;;;;;;6341750;28;20134;-81
2022/05/05 02:14:00;;;;;;;14.65;10.77;;;;;;;;;;6291789;28;20060;-82
2022/05/05 02:17:02;;;;;;;15.65;11.07;;;;;;;;;;6299071;28;20422;-81
2022/05/05 02:20:08;;;;;;;15.95;10.80;;;;;;;;;;6297156;28;20056;-80
2022/05/05 02:23:09;;;;;;;18.13;11.82;;;;;;;;;;6320395;28;20105;-82
2022/05/05 02:26:11;;;;;;;19.85;11.40;;;;;;;;;;6319001;28;20056;-82
2022/05/05 02:29:13;;;;;;;20.13;12.30;;;;;;;;;;6318289;28;20093;-82
2022/05/05 02:32:15;;;;;;;17.05;11.90;;;;;;;;;;6316748;28;20044;-82
2022/05/05 02:35:18;;;;;;;17.13;11.80;;;;;;;;;;6284056;28;20044;-82
2022/05/05 02:38:53;;;;;;;18.05;12.13;;;;;;;;;;6318752;28;20054;-81
2022/05/05 02:41:47;;;;;;;19.30;11.88;;;;;;;;;;6317636;28;20761;-82
2022/05/05 02:44:49;;;;;;;18.80;12.65;;;;;;;;;;6306504;28;20082;-81
2022/05/05 02:47:51;;;;;;;16.77;11.85;;;;;;;;;;6331415;28;20051;-81
2022/05/05 02:50:52;;;;;;;24.00;12.95;;;;;;;;;;6297172;28;20086;-81
2022/05/05 02:54:56;;;;;;;17.25;11.35;;;;;;;;;;6297717;28;20118;-82
2022/05/05 02:57:25;;;;;;;21.42;12.52;;;;;;;;;;6289440;28;20048;-81
2022/05/05 03:00:27;;;;;;;17.65;11.68;;;;;;;;;;6298391;28;20044;-81
2022/05/05 03:03:29;;;;;;;17.70;11.90;;;;;;;;;;6316564;28;20052;-81
2022/05/05 03:06:30;;;;;;;16.92;11.70;;;;;;;;;;6307729;28;20050;-81
2022/05/05 03:09:32;;;;;;;20.58;11.98;;;;;;;;;;6303839;28;21009;-82
2022/05/05 03:12:34;;;;;;;22.05;13.02;;;;;;;;;;6324359;28;20044;-81
2022/05/05 03:15:35;;;;;;;30.80;17.17;;;;;;;;;;6325773;28;20527;-82
2022/05/05 03:18:40;;;;;;;24.50;14.68;;;;;;;;;;6322997;28;20220;-80
2022/05/05 03:21:42;;;;;;;20.73;11.70;;;;;;;;;;6322497;28;20596;-81
2022/05/05 03:24:43;;;;;;;20.50;11.90;;;;;;;;;;6322630;28;20437;-81
2022/05/05 03:27:45;;;;;;;18.90;11.68;;;;;;;;;;6321010;28;20051;-79
2022/05/05 03:30:46;;;;;;;16.52;10.98;;;;;;;;;;6320272;28;20113;-80
2022/05/05 03:33:48;;;;;;;16.98;10.57;;;;;;;;;;6320771;28;20059;-79
2022/05/05 03:36:50;;;;;;;18.40;10.57;;;;;;;;;;6323681;28;20048;-81
2022/05/05 03:39:51;;;;;;;16.00;9.95;;;;;;;;;;6315656;28;20108;-79
2022/05/05 03:42:53;;;;;;;16.23;9.68;;;;;;;;;;6323116;28;20040;-80
2022/05/05 03:45:55;;;;;;;13.63;9.13;;;;;;;;;;6317252;28;20110;-79
2022/05/05 03:48:57;;;;;;;14.80;9.48;;;;;;;;;;6295243;28;20044;-80
2022/05/05 03:51:58;;;;;;;14.43;9.90;;;;;;;;;;6294042;28;20178;-79
2022/05/05 03:55:00;;;;;;;17.70;10.43;;;;;;;;;;6296202;28;20480;-81
2022/05/05 03:58:02;;;;;;;21.75;10.68;;;;;;;;;;6268822;28;20116;-79
2022/05/05 04:01:03;;;;;;;14.68;10.32;;;;;;;;;;6304419;28;20130;-79
2022/05/05 04:04:05;;;;;;;17.50;10.40;;;;;;;;;;6319750;28;20097;-81
2022/05/05 04:07:06;;;;;;;15.65;10.05;;;;;;;;;;6322792;28;20081;-81
2022/05/05 04:10:08;;;;;;;16.17;9.90;;;;;;;;;;6317747;28;20518;-81
2022/05/05 04:13:10;;;;;;;19.42;10.18;;;;;;;;;;6289554;28;20425;-81
2022/05/05 04:16:12;;;;;;;14.93;9.73;;;;;;;;;;6296467;28;20102;-80
2022/05/05 04:19:14;;;;;;;20.13;10.00;;;;;;;;;;6286761;28;20044;-81
2022/05/05 04:22:16;;;;;;;19.27;10.40;;;;;;;;;;6286856;28;20072;-81
2022/05/05 04:25:17;;;;;;;17.38;9.88;;;;;;;;;;6276929;28;20093;-79
2022/05/05 04:28:21;;;;;;;18.42;9.77;;;;;;;;;;6322234;28;20475;-80
2022/05/05 04:31:25;;;;;;;16.23;9.73;;;;;;;;;;6301279;28;20485;-80
2022/05/05 04:34:27;;;;;;;17.48;9.25;;;;;;;;;;6297305;28;20059;-81
2022/05/05 04:37:29;;;;;;;17.20;8.88;;;;;;;;;;6296151;28;20094;-80
2022/05/05 04:40:31;;;;;;;13.98;9.00;;;;;;;;;;6296207;28;20541;-81
2022/05/05 04:43:33;;;;;;;14.40;9.02;;;;;;;;;;6297766;28;20090;-81
2022/05/05 04:46:35;;;;;;;19.15;9.57;;;;;;;;;;6291193;28;20048;-80
2022/05/05 04:49:37;;;;;;;15.90;8.77;;;;;;;;;;6323273;28;20129;-81
2022/05/05 04:52:39;;;;;;;19.35;9.50;;;;;;;;;;6318816;28;20056;-81
2022/05/05 04:55:40;;;;;;;15.10;9.20;;;;;;;;;;6321671;28;20082;-81
2022/05/05 04:58:42;;;;;;;17.02;10.10;;;;;;;;;;6320323;28;20111;-81
2022/05/05 05:01:44;;;;;;;19.05;9.45;;;;;;;;;;6314405;28;20059;-81
2022/05/05 05:04:45;;;;;;;23.08;9.23;;;;;;;;;;6294125;28;20044;-81
2022/05/05 05:07:47;;;;;;;17.02;9.02;;;;;;;;;;6298174;28;20064;-81
2022/05/05 05:10:49;;;;;;;21.45;10.05;;;;;;;;;;6295820;28;20105;-81
2022/05/05 05:13:51;;;;;;;15.95;8.48;;;;;;;;;;6312823;28;20049;-80
2022/05/05 05:16:52;;;;;;;14.27;8.40;;;;;;;;;;6300049;28;20221;-80
2022/05/05 05:19:54;;;;;;;13.75;8.23;;;;;;;;;;6322260;28;20032;-81
2022/05/05 05:22:56;;;;;;;15.27;8.30;;;;;;;;;;6322194;28;20066;-81
2022/05/05 05:25:57;;;;;;;12.93;8.15;;;;;;;;;;6323038;28;20131;-81
2022/05/05 05:28:59;;;;;;;16.55;8.80;;;;;;;;;;6324461;28;20052;-80
2022/05/05 05:32:01;;;;;;;16.60;8.63;;;;;;;;;;6321104;28;20063;-81
2022/05/05 05:35:03;;;;;;;16.52;9.13;;;;;;;;;;6321614;28;20064;-81
2022/05/05 05:38:05;;;;;;;12.95;8.35;;;;;;;;;;6324306;28;20048;-81
2022/05/05 05:41:08;;;;;;;13.02;7.53;;;;;;;;;;6301824;28;20040;-80
2022/05/05 05:44:11;;;;;;;13.85;7.57;;;;;;;;;;6314891;28;20549;-81
2022/05/05 05:47:12;;;;;;;16.92;7.55;;;;;;;;;;6296985;28;20045;-86
2022/05/05 05:50:14;;;;;;;12.80;7.35;;;;;;;;;;6297661;28;20044;-81
2022/05/05 05:53:16;;;;;;;13.10;8.68;;;;;;;;;;6295938;28;20044;-81
2022/05/05 05:56:18;;;;;;;16.67;8.15;;;;;;;;;;6307503;28;20063;-81
2022/05/05 05:59:19;;;;;;;16.73;8.60;;;;;;;;;;6321316;28;20122;-80
2022/05/05 06:05:42;;;;;;;17.40;7.82;;;;;;;;;;6294909;28;20044;-81
2022/05/05 06:08:49;;;;;;;15.30;7.50;;;;;;;;;;6297335;28;20032;-80
2022/05/05 06:11:51;;;;;;;14.55;7.43;;;;;;;;;;6305334;28;20056;-80
2022/05/05 06:14:53;;;;;;;16.00;7.60;;;;;;;;;;6323001;28;20121;-79
2022/05/05 06:17:56;;;;;;;14.85;7.60;;;;;;;;;;6306536;28;20068;-82
2022/05/05 06:20:58;;;;;;;16.15;7.50;;;;;;;;;;6296350;28;20041;-81
2022/05/05 06:23:59;;;;;;;19.42;7.97;;;;;;;;;;6295480;28;20094;-81
2022/05/05 06:27:01;;;;;;;15.35;7.60;;;;;;;;;;6339676;28;20048;-83
2022/05/05 06:30:05;;;;;;;12.73;7.30;;;;;;;;;;6327345;28;20055;-82
2022/05/05 06:33:06;;;;;;;15.18;7.63;;;;;;;;;;6325986;28;20043;-83
2022/05/05 06:36:08;;;;;;;18.50;8.05;;;;;;;;;;6331227;28;20052;-81
2022/05/05 06:39:10;;;;;;;14.27;7.57;;;;;;;;;;6318003;28;20082;-82
2022/05/05 06:42:12;;;;;;;13.82;7.15;;;;;;;;;;6321801;28;20521;-82
2022/05/05 06:45:14;;;;;;;13.75;6.70;;;;;;;;;;6328320;28;20048;-83
2022/05/05 06:48:16;;;;;;;22.50;7.72;;;;;;;;;;6339421;28;20409;-81
2022/05/05 06:51:18;;;;;;;18.48;7.90;;;;;;;;;;6347721;28;20066;-81
2022/05/05 06:54:19;;;;;;;14.50;6.68;;;;;;;;;;6350844;28;20048;-82
2022/05/05 06:57:21;;;;;;;16.13;6.75;;;;;;;;;;6344791;28;20497;-81
2022/05/05 07:00:23;;;;;;;13.23;6.53;;;;;;;;;;6349747;28;20060;-81
2022/05/05 07:03:24;;;;;;;13.35;6.97;;;;;;;;;;6352047;28;20077;-81
2022/05/05 07:06:26;;;;;;;12.63;5.95;;;;;;;;;;6331773;28;20040;-80
2022/05/05 07:12:48;;;;;;;12.68;5.68;;;;;;;;;;6301189;28;20053;-82
2022/05/05 07:15:51;;;;;;;12.65;5.40;;;;;;;;;;6297359;28;20045;-83
2022/05/05 07:18:52;;;;;;;11.55;5.15;;;;;;;;;;6321017;28;20044;-82
2022/05/05 07:21:54;;;;;;;12.60;5.53;;;;;;;;;;6328491;28;20063;-82
2022/05/05 07:24:56;;;;;;;12.02;5.13;;;;;;;;;;6326552;28;20040;-82
2022/05/05 07:27:58;;;;;;;10.25;5.13;;;;;;;;;;6333054;28;20127;-82
2022/05/05 07:31:00;;;;;;;11.43;5.25;;;;;;;;;;6332225;28;20451;-83
2022/05/05 07:34:02;;;;;;;10.45;5.07;;;;;;;;;;6316985;28;20073;-82
2022/05/05 07:37:04;;;;;;;11.73;4.60;;;;;;;;;;6331359;28;20052;-84
2022/05/05 07:40:07;;;;;;;11.07;4.63;;;;;;;;;;6315164;28;20525;-84
2022/05/05 07:43:10;;;;;;;6.60;3.95;;;;;;;;;;6298914;28;20123;-83
2022/05/05 07:46:17;;;;;;;7.88;4.60;;;;;;;;;;6299888;28;20048;-83
2022/05/05 07:49:19;;;;;;;7.68;3.90;;;;;;;;;;6301545;28;20051;-81
2022/05/05 07:52:21;;;;;;;6.55;3.92;;;;;;;;;;6304205;28;20086;-83
2022/05/05 07:55:22;;;;;;;7.85;4.00;;;;;;;;;;6308948;28;20068;-84
2022/05/05 07:58:24;;;;;;;9.95;4.60;;;;;;;;;;6296576;28;20064;-82
2022/05/05 08:01:26;;;;;;;10.57;4.50;;;;;;;;;;6272990;28;20120;-84
2022/05/05 08:04:28;;;;;;;5.88;3.88;;;;;;;;;;6332502;28;20145;-83
2022/05/05 08:07:30;;;;;;;9.10;3.80;;;;;;;;;;6349816;28;20201;-84
2022/05/05 08:10:33;;;;;;;7.68;3.70;;;;;;;;;;6293137;28;20051;-83
2022/05/05 08:13:35;;;;;;;7.35;3.78;;;;;;;;;;6299270;28;20128;-84
2022/05/05 08:16:37;;;;;;;5.38;3.75;;;;;;;;;;6297079;28;20581;-83
2022/05/05 08:19:39;;;;;;;9.52;4.57;;;;;;;;;;6296721;28;20052;-85
2022/05/05 08:22:41;;;;;;;9.82;4.57;;;;;;;;;;6298359;28;20583;-83
2022/05/05 08:29:03;;;;;;;9.23;4.97;;;;;;;;;;6295629;28;20059;-85
2022/05/05 08:32:05;;;;;;;9.48;4.75;;;;;;;;;;6293010;28;20074;-84
2022/05/05 08:35:07;;;;;;;8.00;4.47;;;;;;;;;;6296252;28;20494;-86
2022/05/05 08:38:08;;;;;;;8.10;4.28;;;;;;;;;;6297804;28;20579;-85
2022/05/05 08:41:11;;;;;;;6.80;4.40;;;;;;;;;;6294021;28;20091;-82
2022/05/05 08:44:13;;;;;;;9.70;5.18;;;;;;;;;;6295102;28;20048;-84
2022/05/05 08:47:16;;;;;;;11.80;5.32;;;;;;;;;;6294906;28;20105;-84
2022/05/05 08:50:20;;;;;;;11.90;5.32;;;;;;;;;;6295652;28;20127;-85
2022/05/05 08:53:25;;;;;;;12.18;5.35;;;;;;;;;;6294665;28;20041;-83
2022/05/05 08:56:27;;;;;;;10.55;5.75;;;;;;;;;;6294215;28;20090;-85
2022/05/05 08:59:28;;;;;;;9.13;5.28;;;;;;;;;;6292723;28;20097;-83
2022/05/05 09:02:30;;;;;;;11.13;5.50;;;;;;;;;;6315729;28;20040;-83
2022/05/05 09:05:44;;;;;;;11.55;5.68;;;;;;;;;;6345115;28;20161;-85
2022/05/05 09:08:45;;;;;;;9.13;4.95;;;;;;;;;;6345417;28;20370;-85
2022/05/05 09:12:16;;;;;;;11.98;5.47;;;;;;;;;;6300439;28;20040;-85
2022/05/05 09:15:18;;;;;;;8.80;5.13;;;;;;;;;;6269165;28;20112;-84
2022/05/05 09:18:22;;;;;;;10.23;5.55;;;;;;;;;;6279022;28;20037;-84
2022/05/05 09:21:34;;;;;;;10.20;5.10;;;;;;;;;;6270554;28;20045;-84
2022/05/05 09:24:36;;;;;;;8.35;5.82;;;;;;;;;;6267187;28;20079;-84
2022/05/05 09:27:38;;;;;;;9.98;5.38;;;;;;;;;;6290969;28;20130;-82
2022/05/05 09:30:46;;;;;;;9.13;5.25;;;;;;;;;;6273065;28;20048;-81
2022/05/05 09:33:47;;;;;;;9.05;5.57;;;;;;;;;;6299927;28;20048;-82
2022/05/05 09:36:49;;;;;;;11.32;5.25;;;;;;;;;;6299760;28;20486;-82
2022/05/05 09:40:02;;;;;;;10.25;4.63;;;;;;;;;;6299273;28;20049;-83
2022/05/05 09:43:04;;;;;;;11.88;5.82;;;;;;;;;;6322049;28;20059;-82
2022/05/05 09:46:26;;;;;;;9.98;5.38;;;;;;;;;;6315313;28;20048;-82
2022/05/05 09:49:27;;;;;;;9.18;5.07;;;;;;;;;;6266251;28;20053;-83
2022/05/05 09:59:26;;;;;;;9.20;5.20;;;;;;;;;;6297629;28;20048;-83
2022/05/05 10:05:53;;;;;;;8.75;5.45;;;;;;;;;;6274724;28;20100;-80
2022/05/05 10:08:57;;;;;;;10.07;5.38;;;;;;;;;;6254550;28;20108;-80
2022/05/05 10:12:00;;;;;;;9.40;4.18;;;;;;;;;;6294875;28;20070;-81
2022/05/05 10:15:02;;;;;;;9.80;5.40;;;;;;;;;;6325680;28;20054;-81
2022/05/05 10:18:04;;;;;;;8.80;5.05;;;;;;;;;;6308438;28;20055;-81
2022/05/05 10:21:08;;;;;;;10.17;5.07;;;;;;;;;;6300910;28;20060;-81
2022/05/05 10:24:16;;;;;;;6.75;4.25;;;;;;;;;;6297646;28;20044;-81
2022/05/05 10:27:18;;;;;;;9.10;4.30;;;;;;;;;;6311444;28;20044;-81
2022/05/05 10:30:34;;;;;;;10.05;6.00;;;;;;;;;;6319781;28;20044;-82
2022/05/05 10:34:08;;;;;;;10.55;5.20;;;;;;;;;;6320808;28;20044;-81
2022/05/05 10:37:17;;;;;;;9.23;4.63;;;;;;;;;;6320372;28;20044;-80
2022/05/05 10:40:19;;;;;;;9.90;4.80;;;;;;;;;;6304995;28;20068;-82
2022/05/05 10:43:33;;;;;;;8.88;4.80;;;;;;;;;;6298127;28;20074;-81
2022/05/05 10:46:50;;;;;;;9.35;4.82;;;;;;;;;;6297229;28;20119;-81
2022/05/05 10:49:53;;;;;;;6.97;4.20;;;;;;;;;;6298723;28;20050;-81
2022/05/05 10:52:57;;;;;;;9.02;4.53;;;;;;;;;;6302274;28;20045;-80
2022/05/05 10:56:00;;;;;;;;;;;;;;;;;;6306963;28;20044;-82
2022/05/05 10:59:09;;;;;;;10.07;5.25;;;;;;;;;;6299539;28;19924;-82
2022/05/05 11:02:18;;;;;;;10.48;4.82;;;;;;;;;;6308502;28;20046;-82
2022/05/05 11:05:40;;;;;;;8.32;4.60;;;;;;;;;;6329175;28;20050;-82
2022/05/05 11:09:08;;;;;;;8.60;4.70;;;;;;;;;;6327554;28;20059;-82
2022/05/05 11:12:16;;;;;;;8.60;4.30;;;;;;;;;;6322113;28;20655;-83
2022/05/05 11:22:18;;;;;;;6.13;4.20;;;;;;;;;;6268480;28;20062;-81
2022/05/05 11:25:20;;;;;;;6.70;4.45;;;;;;;;;;6302044;28;20117;-82
2022/05/05 11:28:22;;;;;;;9.90;4.38;;;;;;;;;;6296718;28;20119;-82
2022/05/05 11:31:28;;;;;;;8.40;4.60;;;;;;;;;;6296786;28;20044;-82
2022/05/05 11:34:36;;;;;;;9.02;4.53;;;;;;;;;;6295572;28;20108;-83
2022/05/05 11:37:42;;;;;;;6.00;4.32;;;;;;;;;;6294299;28;20136;-82
2022/05/05 11:40:43;;;;;;;7.70;4.30;;;;;;;;;;6294322;28;20059;-81
2022/05/05 11:47:14;;;;;;;8.85;4.07;;;;;;;;;;6305132;28;20081;-84
2022/05/05 11:50:16;;;;;;;10.10;4.70;;;;;;;;;;6320398;28;20040;-82
2022/05/05 11:53:18;;;;;;;8.45;4.97;;;;;;;;;;6319105;28;20127;-83
2022/05/05 11:56:19;;;;;;;8.32;4.72;;;;;;;;;;6320096;28;20048;-83
2022/05/05 12:02:44;;;;;;;7.47;4.13;;;;;;;;;;6310333;28;20136;-82
2022/05/05 12:05:53;;;;;;;6.50;4.43;;;;;;;;;;6297929;28;20437;-82
2022/05/05 12:08:58;;;;;;;6.95;4.38;;;;;;;;;;6297439;28;20119;-84
2022/05/05 12:12:18;;;;;;;9.40;4.57;;;;;;;;;;6308906;28;20044;-83
2022/05/05 12:15:23;;;;;;;8.73;4.57;;;;;;;;;;6325413;28;20112;-84
2022/05/05 12:18:24;;;;;;;10.68;5.10;;;;;;;;;;6319970;28;20562;-84
2022/05/05 12:21:27;;;;;;;7.10;4.93;;;;;;;;;;6320775;28;20040;-83
2022/05/05 12:24:30;;;;;;;10.68;4.68;;;;;;;;;;6317243;28;20121;-82
2022/05/05 12:27:33;;;;;;;7.25;4.50;;;;;;;;;;6279203;28;20048;-83
2022/05/05 12:30:39;;;;;;;8.65;5.40;;;;;;;;;;6296299;28;20106;-83
2022/05/05 12:33:41;;;;;;;8.75;5.30;;;;;;;;;;6338470;28;20506;-81
2022/05/05 12:36:44;;;;;;;9.88;5.15;;;;;;;;;;6346512;28;20099;-82
2022/05/05 12:39:51;;;;;;;6.32;4.60;;;;;;;;;;6312868;28;20110;-83
2022/05/05 12:43:01;;;;;;;6.32;4.25;;;;;;;;;;6299020;28;20049;-83
2022/05/05 12:46:04;;;;;;;8.35;4.82;;;;;;;;;;6297656;28;20186;-81
2022/05/05 12:49:06;;;;;;;7.88;4.85;;;;;;;;;;6296071;28;20106;-81
2022/05/05 12:59:36;;;;;;;8.50;4.55;;;;;;;;;;6313032;28;20121;-83
2022/05/05 13:02:11;;;;;;;10.70;5.40;;;;;;;;;;6296349;28;20110;-81
2022/05/05 13:05:13;;;;;;;9.80;4.43;;;;;;;;;;6299240;28;20049;-83
2022/05/05 13:08:15;;;;;;;8.17;4.43;;;;;;;;;;6292819;28;20054;-80
2022/05/05 13:11:17;;;;;;;9.85;4.78;;;;;;;;;;6291491;28;20078;-79
2022/05/05 13:14:20;;;;;;;8.45;4.93;;;;;;;;;;6291593;28;20045;-79
2022/05/05 13:17:22;;;;;;;7.53;4.68;;;;;;;;;;6288672;28;20040;-79
2022/05/05 13:20:24;;;;;;;9.88;4.97;;;;;;;;;;6291200;28;20044;-80
2022/05/05 13:23:26;;;;;;;8.30;4.38;;;;;;;;;;6291391;28;20506;-79
2022/05/05 13:26:28;;;;;;;8.18;4.18;;;;;;;;;;6292083;28;20135;-81
2022/05/05 13:29:31;;;;;;;9.52;4.53;;;;;;;;;;6290791;28;20037;-81
2022/05/05 13:32:34;;;;;;;8.30;5.15;;;;;;;;;;6281971;28;20131;-81
2022/05/05 13:35:35;;;;;;;;;;;;;;;;;;6273876;28;20044;-84
2022/05/05 13:38:37;;;;;;;7.40;4.30;;;;;;;;;;6274856;28;19928;-85
2022/05/05 13:41:59;;;;;;;6.47;4.30;;;;;;;;;;6268432;28;20489;-84
2022/05/05 13:45:01;;;;;;;8.68;4.47;;;;;;;;;;6278800;28;20155;-83
2022/05/05 13:48:04;;;;;;;6.97;4.47;;;;;;;;;;6297196;28;20515;-81
2022/05/05 13:51:06;;;;;;;7.03;4.57;;;;;;;;;;6294790;28;20071;-82
2022/05/05 13:54:07;;;;;;;7.90;4.07;;;;;;;;;;6293949;28;20048;-82
2022/05/05 13:57:09;;;;;;;6.63;4.32;;;;;;;;;;6317847;28;20125;-82
2022/05/05 14:00:13;;;;;;;6.32;4.20;;;;;;;;;;6295601;28;20048;-82
2022/05/05 14:03:16;;;;;;;8.57;4.03;;;;;;;;;;6296207;28;20051;-82
2022/05/05 14:06:18;;;;;;;9.45;4.40;;;;;;;;;;6297066;28;20105;-83
2022/05/05 14:12:40;;;;;;;6.82;4.03;;;;;;;;;;6294913;28;20048;-82
2022/05/05 14:15:42;;;;;;;7.13;4.28;;;;;;;;;;6297355;28;20049;-83
2022/05/05 14:18:44;;;;;;;6.70;4.15;;;;;;;;;;6293714;28;20474;-82
2022/05/05 14:21:46;;;;;;;9.25;4.53;;;;;;;;;;6285804;28;20118;-81
2022/05/05 14:24:48;;;;;;;8.52;4.22;;;;;;;;;;6271383;28;20067;-82
2022/05/05 14:27:50;;;;;;;8.90;3.92;;;;;;;;;;6293529;28;20067;-83
2022/05/05 14:30:53;;;;;;;7.45;4.40;;;;;;;;;;6315592;28;20072;-82
2022/05/05 14:33:54;;;;;;;6.97;3.47;;;;;;;;;;6305377;28;20055;-82
2022/05/05 14:36:56;;;;;;;6.45;4.18;;;;;;;;;;6271583;28;20057;-81
2022/05/05 14:39:58;;;;;;;7.88;4.10;;;;;;;;;;6301516;28;20109;-82
2022/05/05 14:43:00;;;;;;;9.50;3.92;;;;;;;;;;6301484;28;20048;-82
2022/05/05 14:46:02;;;;;;;8.30;3.90;;;;;;;;;;6303409;28;20048;-82
2022/05/05 14:49:06;;;;;;;5.78;3.90;;;;;;;;;;6321607;28;20051;-82
2022/05/05 14:52:09;;;;;;;6.85;3.75;;;;;;;;;;6309674;28;20106;-81
2022/05/05 14:55:11;;;;;;;6.18;4.47;;;;;;;;;;6296124;28;20098;-81
2022/05/05 14:58:12;;;;;;;7.10;4.10;;;;;;;;;;6296996;28;20494;-83
2022/05/05 15:01:14;;;;;;;10.48;4.90;;;;;;;;;;6293593;28;20040;-81
2022/05/05 15:04:16;;;;;;;6.85;4.57;;;;;;;;;;6317633;28;20055;-81
2022/05/05 15:07:18;;;;;;;7.10;4.47;;;;;;;;;;6318004;28;20392;-82
2022/05/05 15:10:19;;;;;;;7.20;4.30;;;;;;;;;;6300291;28;20508;-82
2022/05/05 15:13:22;;;;;;;7.53;4.18;;;;;;;;;;6300546;28;20097;-82
2022/05/05 15:16:29;;;;;;;7.25;4.03;;;;;;;;;;6297023;28;20070;-83
2022/05/05 15:19:33;;;;;;;14.18;4.32;;;;;;;;;;6317377;28;20058;-83
2022/05/05 15:22:39;;;;;;;7.07;4.28;;;;;;;;;;6280580;28;20095;-82
2022/05/05 15:25:40;;;;;;;8.57;4.20;;;;;;;;;;6294869;28;20052;-81
2022/05/05 15:28:42;;;;;;;6.25;4.22;;;;;;;;;;6288853;28;20036;-81
2022/05/05 15:31:44;;;;;;;7.93;4.68;;;;;;;;;;6299016;28;20072;-80
2022/05/05 15:34:45;;;;;;;8.93;4.53;;;;;;;;;;6316398;28;20506;-80
2022/05/05 15:37:47;;;;;;;11.15;4.15;;;;;;;;;;6306980;28;20131;-80
2022/05/05 15:40:49;;;;;;;8.38;4.72;;;;;;;;;;6289051;28;20049;-80
2022/05/05 15:43:51;;;;;;;7.60;4.57;;;;;;;;;;6271173;28;20155;-80
2022/05/05 15:46:53;;;;;;;9.15;4.38;;;;;;;;;;6286585;28;20049;-79
2022/05/05 15:49:55;;;;;;;6.17;4.17;;;;;;;;;;6290123;28;20102;-80
2022/05/05 15:52:57;;;;;;;8.82;4.10;;;;;;;;;;6287356;28;20127;-80
2022/05/05 15:55:59;;;;;;;7.55;4.15;;;;;;;;;;6286061;28;20052;-79
2022/05/05 15:59:01;;;;;;;5.75;3.92;;;;;;;;;;6294916;28;20218;-80
2022/05/05 16:02:03;;;;;;;5.43;3.33;;;;;;;;;;6284309;28;20127;-79
2022/05/05 16:05:08;;;;;;;6.18;3.47;;;;;;;;;;6285374;28;20048;-83
2022/05/05 16:08:10;;;;;;;4.75;3.15;;;;;;;;;;6297556;28;20056;-81
2022/05/05 16:11:12;;;;;;;11.90;4.38;;;;;;;;;;6254471;28;20235;-80
2022/05/05 16:14:13;;;;;;;6.15;3.40;;;;;;;;;;6255169;28;20048;-78
2022/05/05 16:17:15;;;;;;;9.77;3.45;;;;;;;;;;6271252;28;20142;-80
2022/05/05 16:20:19;;;;;;;6.70;3.45;;;;;;;;;;6278745;28;20098;-82
2022/05/05 16:23:21;;;;;;;5.53;3.25;;;;;;;;;;6280269;28;20562;-80
2022/05/05 16:33:03;;;;;;;6.72;3.25;;;;;;;;;;6280390;28;20121;-80
2022/05/05 16:36:06;;;;;;;3.97;3.30;;;;;;;;;;6281461;28;20048;-80
2022/05/05 16:39:08;;;;;;;6.68;3.10;;;;;;;;;;6278283;28;20079;-81
2022/05/05 16:42:10;;;;;;;7.22;3.20;;;;;;;;;;6294250;28;20387;-80
2022/05/05 16:45:13;;;;;;;3.28;2.95;;;;;;;;;;6282428;28;20143;-81
2022/05/05 16:48:14;;;;;;;5.93;3.38;;;;;;;;;;6288855;28;20052;-79
2022/05/05 16:51:16;;;;;;;6.13;3.33;;;;;;;;;;6275921;28;20072;-81
2022/05/05 16:54:19;;;;;;;6.38;3.42;;;;;;;;;;6279439;28;20135;-80
2022/05/05 16:57:21;;;;;;;5.35;3.25;;;;;;;;;;6285434;28;20071;-81
2022/05/05 17:00:24;;;;;;;5.03;2.78;;;;;;;;;;6297674;28;20044;-80
2022/05/05 17:03:25;;;;;;;;;;;;;;;;;;6283314;28;20565;-82
2022/05/05 17:06:30;;;;;;;5.35;3.22;;;;;;;;;;6260380;28;19921;-80
2022/05/05 17:09:32;;;;;;;9.30;3.40;;;;;;;;;;6269085;28;20048;-79
2022/05/05 17:12:34;;;;;;;9.38;3.63;;;;;;;;;;6277219;28;20701;-80
2022/05/05 17:15:37;;;;;;;;;;;;;;;;;;6278873;28;20047;-82
2022/05/05 17:18:38;;;;;;;5.75;3.25;;;;;;;;;;6278644;28;19924;-79
2022/05/05 17:21:40;;;;;;;4.03;3.58;;;;;;;;;;6294258;28;20071;-81
2022/05/05 17:24:41;;;;;;;8.45;3.50;;;;;;;;;;6271295;28;20068;-80
2022/05/05 17:27:43;;;;;;;5.95;3.33;;;;;;;;;;6271524;28;20102;-81
2022/05/05 17:30:45;;;;;;;8.10;3.90;;;;;;;;;;6277090;28;20125;-81
2022/05/05 17:33:47;;;;;;;5.97;3.35;;;;;;;;;;6300775;28;20039;-81
2022/05/05 17:36:48;;;;;;;6.70;3.50;;;;;;;;;;6305143;28;20641;-80
2022/05/05 17:39:50;;;;;;;6.20;3.45;;;;;;;;;;6282154;28;20048;-81
2022/05/05 17:42:52;;;;;;;7.90;4.27;;;;;;;;;;6283955;28;20059;-80
2022/05/05 17:52:48;;;;;;;5.03;3.75;;;;;;;;;;6225159;28;20055;-81
2022/05/05 17:55:50;;;;;;;6.95;3.72;;;;;;;;;;6256477;28;20155;-80
2022/05/05 17:58:53;;;;;;;4.68;3.38;;;;;;;;;;6279365;28;20495;-80
2022/05/05 18:01:55;;;;;;;4.85;3.30;;;;;;;;;;6281506;28;20044;-81
2022/05/05 18:04:56;;;;;;;6.32;3.58;;;;;;;;;;6303221;28;20051;-81
2022/05/05 18:07:59;;;;;;;4.70;3.25;;;;;;;;;;6275340;28;20125;-80
2022/05/05 18:11:01;;;;;;;7.88;3.47;;;;;;;;;;6302013;28;20052;-80
2022/05/05 18:14:02;;;;;;;5.65;3.63;;;;;;;;;;6278424;28;20098;-80
2022/05/05 18:17:05;;;;;;;5.47;3.53;;;;;;;;;;6282983;28;20163;-82
2022/05/05 18:20:07;;;;;;;6.32;3.60;;;;;;;;;;6297428;28;20099;-81
2022/05/05 18:23:09;;;;;;;6.00;3.35;;;;;;;;;;6279577;28;20155;-80
2022/05/05 18:26:11;;;;;;;4.22;3.13;;;;;;;;;;6278291;28;20041;-80
2022/05/05 18:29:13;;;;;;;4.63;3.25;;;;;;;;;;6278151;28;20037;-81
2022/05/05 18:32:14;;;;;;;5.90;3.10;;;;;;;;;;6278373;28;20044;-80
2022/05/05 18:35:16;;;;;;;4.97;3.10;;;;;;;;;;6277147;28;20055;-81
2022/05/05 18:38:18;;;;;;;5.78;3.40;;;;;;;;;;6274488;28;20040;-80
2022/05/05 18:41:20;;;;;;;4.32;3.10;;;;;;;;;;6275821;28;20040;-80
2022/05/05 18:44:21;;;;;;;4.90;3.38;;;;;;;;;;6297978;28;20041;-81
2022/05/05 18:47:23;;;;;;;4.68;3.22;;;;;;;;;;6269597;28;20132;-80
2022/05/05 18:50:25;;;;;;;8.38;3.75;;;;;;;;;;6278888;28;20430;-80
2022/05/05 18:53:27;;;;;;;9.97;5.50;;;;;;;;;;6294637;28;20044;-80
2022/05/05 18:56:35;;;;;;;11.48;5.50;;;;;;;;;;6304992;28;20083;-81
2022/05/05 18:59:38;;;;;;;9.20;4.95;;;;;;;;;;6287056;28;20072;-81
2022/05/05 19:02:40;;;;;;;9.15;5.68;;;;;;;;;;6316307;28;20124;-80
2022/05/05 19:05:42;;;;;;;21.27;9.68;;;;;;;;;;6329524;28;20126;-80
2022/05/05 19:08:44;;;;;;;46.78;26.60;;;;;;;;;;6316497;28;20108;-80
2022/05/05 19:11:45;;;;;;;8.35;6.38;;;;;;;;;;6303616;28;20056;-80
2022/05/05 19:14:47;;;;;;;8.13;5.60;;;;;;;;;;6305653;28;20051;-79